createdAt,value
2019-01-18T00:01:55.943Z,27.00
2019-01-18T00:04:22.063Z,30.57
2019-01-18T00:06:48.174Z,28.20
2019-01-18T00:09:14.350Z,25.07
2019-01-18T00:11:40.467Z,31.60
2019-01-18T00:14:06.566Z,30.27
2019-01-18T00:16:32.675Z,29.97
2019-01-18T00:18:58.772Z,30.53
2019-01-18T00:21:24.906Z,31.53
2019-01-18T00:23:50.988Z,26.83
2019-01-18T00:26:17.070Z,27.53
2019-01-18T00:28:43.196Z,26.70
2019-01-18T00:31:09.327Z,23.57
2019-01-18T00:33:35.437Z,29.07
2019-01-18T00:36:01.763Z,27.53
2019-01-18T00:38:27.860Z,30.63
2019-01-18T00:40:53.958Z,29.70
2019-01-18T00:43:20.045Z,25.33
2019-01-18T00:45:46.162Z,26.33
2019-01-18T00:48:12.274Z,22.87
2019-01-18T00:50:38.387Z,21.83
2019-01-18T00:53:04.487Z,24.23
2019-01-18T00:55:30.605Z,25.60
2019-01-18T00:57:56.728Z,19.77
2019-01-18T01:00:25.578Z,25.87
2019-01-18T01:02:51.711Z,23.17
2019-01-18T01:05:17.792Z,23.23
2019-01-18T01:07:43.919Z,18.17
2019-01-18T01:10:10.014Z,18.50
2019-01-18T01:12:36.150Z,19.70
2019-01-18T01:15:06.046Z,25.33
2019-01-18T01:17:32.199Z,17.07
2019-01-18T01:19:58.291Z,22.30
2019-01-18T01:22:24.417Z,25.87
2019-01-18T01:24:50.515Z,23.10
2019-01-18T01:27:18.542Z,16.23
2019-01-18T01:29:44.631Z,16.13
2019-01-18T01:32:10.780Z,15.40
2019-01-18T01:34:36.866Z,16.30
2019-01-18T01:37:02.955Z,13.27
2019-01-18T01:39:29.061Z,21.30
2019-01-18T01:41:55.414Z,16.97
2019-01-18T01:44:21.530Z,14.70
2019-01-18T01:46:47.625Z,14.27
2019-01-18T01:49:13.725Z,17.70
2019-01-18T01:51:39.814Z,15.43
2019-01-18T01:54:06.039Z,14.93
2019-01-18T01:56:32.135Z,13.20
2019-01-18T01:58:58.236Z,19.13
2019-01-18T02:01:24.350Z,17.27
2019-01-18T02:03:50.468Z,17.47
2019-01-18T02:06:16.564Z,16.50
2019-01-18T02:08:42.661Z,16.33
2019-01-18T02:11:08.789Z,20.40
2019-01-18T02:13:35.275Z,19.73
2019-01-18T02:16:01.397Z,19.63
2019-01-18T02:18:27.489Z,18.63
2019-01-18T02:20:53.603Z,19.43
2019-01-18T02:23:19.691Z,19.40
2019-01-18T02:25:45.831Z,22.93
2019-01-18T02:28:11.944Z,26.80
2019-01-18T02:30:38.089Z,25.17
2019-01-18T02:33:04.278Z,29.00
2019-01-18T02:35:30.398Z,23.40
2019-01-18T02:37:56.486Z,22.67
2019-01-18T02:40:22.600Z,23.97
2019-01-18T02:42:48.716Z,26.30
2019-01-18T02:45:17.316Z,29.17
2019-01-18T02:47:43.410Z,21.17
2019-01-18T02:50:11.015Z,24.63
2019-01-18T02:52:37.132Z,26.23
2019-01-18T02:55:05.544Z,21.67
2019-01-18T02:57:31.663Z,23.37
2019-01-18T03:00:05.026Z,29.80
2019-01-18T03:02:28.799Z,23.30
2019-01-18T03:04:54.887Z,23.67
2019-01-18T03:07:21.006Z,25.27
2019-01-18T03:09:47.092Z,24.63
2019-01-18T03:12:13.203Z,22.67
2019-01-18T03:14:39.295Z,22.30
2019-01-18T03:17:05.402Z,25.70
2019-01-18T03:19:31.499Z,27.27
2019-01-18T03:21:57.615Z,25.13
2019-01-18T03:24:23.703Z,23.93
2019-01-18T03:26:49.816Z,29.27
2019-01-18T03:29:15.927Z,27.10
2019-01-18T03:31:42.016Z,29.20
2019-01-18T03:34:08.122Z,27.67
2019-01-18T03:36:34.207Z,26.37
2019-01-18T03:39:00.320Z,23.90
2019-01-18T03:41:26.424Z,25.13
2019-01-18T03:43:52.532Z,29.33
2019-01-18T03:46:18.623Z,26.60
2019-01-18T03:48:44.754Z,29.50
2019-01-18T03:51:11.176Z,25.80
2019-01-18T03:53:37.286Z,24.47
2019-01-18T03:56:03.398Z,28.27
2019-01-18T03:58:29.520Z,25.47
2019-01-18T04:00:55.607Z,26.53
2019-01-18T04:03:21.728Z,24.50
2019-01-18T04:05:47.810Z,26.77
2019-01-18T04:08:13.935Z,30.40
2019-01-18T04:10:40.123Z,24.63
2019-01-18T04:13:06.239Z,24.73
2019-01-18T04:15:32.450Z,29.77
2019-01-18T04:17:58.537Z,26.73
2019-01-18T04:20:24.715Z,27.90
2019-01-18T04:22:50.807Z,28.03
2019-01-18T04:25:18.823Z,29.30
2019-01-18T04:27:44.903Z,25.93
2019-01-18T04:30:14.327Z,23.73
2019-01-18T04:32:40.456Z,28.97
2019-01-18T04:35:08.295Z,32.13
2019-01-18T04:37:34.393Z,34.03
2019-01-18T04:40:00.514Z,27.30
2019-01-18T04:42:26.617Z,25.37
2019-01-18T04:44:52.707Z,30.20
2019-01-18T04:47:18.824Z,30.47
2019-01-18T04:49:44.910Z,31.90
2019-01-18T04:52:11.035Z,30.33
2019-01-18T04:54:37.147Z,30.03
2019-01-18T04:57:03.263Z,30.80
2019-01-18T04:59:29.358Z,29.83
2019-01-18T05:01:55.509Z,32.43
2019-01-18T05:04:21.690Z,29.67
2019-01-18T05:06:47.812Z,28.63
2019-01-18T05:09:13.907Z,34.63
2019-01-18T05:11:40.022Z,30.23
2019-01-18T05:14:06.211Z,27.43
2019-01-18T05:16:32.823Z,28.43
2019-01-18T05:18:58.924Z,32.57
2019-01-18T05:21:25.062Z,28.73
2019-01-18T05:23:51.159Z,29.33
2019-01-18T05:26:17.249Z,27.70
2019-01-18T05:28:43.370Z,29.17
2019-01-18T05:31:09.470Z,29.73
2019-01-18T05:33:35.582Z,30.43
2019-01-18T05:36:01.700Z,34.07
2019-01-18T05:38:27.818Z,33.80
2019-01-18T05:40:53.915Z,28.70
2019-01-18T05:43:20.022Z,31.67
2019-01-18T05:45:46.130Z,37.43
2019-01-18T05:48:12.243Z,38.83
2019-01-18T05:50:38.487Z,31.20
2019-01-18T05:53:05.492Z,34.27
2019-01-18T05:55:31.641Z,32.60
2019-01-18T05:57:57.898Z,33.13
2019-01-18T06:00:28.406Z,36.30
2019-01-18T06:02:54.599Z,32.60
2019-01-18T06:05:21.023Z,31.57
2019-01-18T06:07:47.106Z,30.60
2019-01-18T06:10:13.615Z,31.90
2019-01-18T06:12:40.121Z,34.40
2019-01-18T06:15:07.755Z,32.03
2019-01-18T06:17:33.847Z,29.17
2019-01-18T06:19:59.977Z,29.00
2019-01-18T06:22:26.059Z,33.80
2019-01-18T06:24:52.432Z,32.10
2019-01-18T06:27:18.527Z,34.37
2019-01-18T06:29:44.663Z,32.23
2019-01-18T06:32:10.746Z,30.80
2019-01-18T06:34:36.969Z,30.17
2019-01-18T06:37:03.070Z,30.87
2019-01-18T06:39:29.175Z,34.67
2019-01-18T06:41:55.470Z,35.83
2019-01-18T06:44:21.580Z,30.77
2019-01-18T06:46:47.683Z,35.40
2019-01-18T06:49:14.619Z,34.10
2019-01-18T06:54:22.536Z,32.67
2019-01-18T06:56:48.656Z,31.77
2019-01-18T06:59:14.742Z,38.60
2019-01-18T07:01:40.855Z,41.33
2019-01-18T07:04:06.942Z,48.30
2019-01-18T07:06:33.048Z,33.97
2019-01-18T07:08:59.150Z,33.83
2019-01-18T07:11:25.252Z,35.47
2019-01-18T07:13:51.347Z,37.33
2019-01-18T07:16:17.460Z,31.00
2019-01-18T07:18:43.699Z,28.60
2019-01-18T07:21:09.782Z,33.07
2019-01-18T07:23:35.904Z,32.00
2019-01-18T07:26:02.033Z,34.43
2019-01-18T07:28:28.143Z,35.37
2019-01-18T07:30:54.238Z,34.00
2019-01-18T07:33:20.332Z,41.67
2019-01-18T07:35:46.430Z,35.27
2019-01-18T07:38:12.534Z,29.43
2019-01-18T07:40:38.621Z,27.03
2019-01-18T07:43:04.820Z,37.90
2019-01-18T07:45:30.947Z,33.07
2019-01-18T07:47:57.058Z,28.17
2019-01-18T07:50:23.143Z,31.43
2019-01-18T07:52:49.277Z,30.33
2019-01-18T07:55:15.407Z,33.53
2019-01-18T07:57:41.529Z,37.17
2019-01-18T08:00:16.670Z,31.73
2019-01-18T08:02:42.774Z,33.23
2019-01-18T08:05:09.484Z,34.10
2019-01-18T08:07:35.592Z,35.77
2019-01-18T08:10:01.684Z,33.23
2019-01-18T08:12:27.767Z,33.87
2019-01-18T08:14:53.874Z,32.30
2019-01-18T08:17:19.977Z,35.10
2019-01-18T08:19:46.080Z,37.07
2019-01-18T08:22:12.187Z,35.27
2019-01-18T08:24:38.308Z,41.33
2019-01-18T08:27:04.399Z,36.97
2019-01-18T08:29:30.501Z,44.83
2019-01-18T08:31:56.604Z,38.97
2019-01-18T08:34:22.700Z,44.77
2019-01-18T08:36:48.805Z,40.67
2019-01-18T08:39:14.893Z,42.03
2019-01-18T08:41:41.003Z,37.77
2019-01-18T08:44:07.100Z,40.43
2019-01-18T08:46:33.196Z,44.33
2019-01-18T08:48:59.299Z,40.00
2019-01-18T08:51:25.387Z,38.57
2019-01-18T08:53:51.496Z,44.47
2019-01-18T08:56:17.648Z,42.03
2019-01-18T08:58:43.994Z,46.80
2019-01-18T09:01:10.096Z,46.53
2019-01-18T09:03:36.199Z,54.17
2019-01-18T09:06:02.292Z,46.20
2019-01-18T09:08:28.481Z,55.43
2019-01-18T09:10:54.587Z,46.80
2019-01-18T09:13:20.696Z,56.77
2019-01-18T09:15:46.787Z,45.33
2019-01-18T09:18:15.760Z,50.13
2019-01-18T09:20:41.861Z,50.47
2019-01-18T09:23:07.966Z,55.73
2019-01-18T09:25:34.142Z,47.30
2019-01-18T09:28:00.222Z,53.43
2019-01-18T09:30:30.522Z,46.20
2019-01-18T09:32:56.602Z,40.53
2019-01-18T09:35:24.470Z,41.23
2019-01-18T09:37:51.272Z,39.20
2019-01-18T09:40:19.982Z,43.40
2019-01-18T09:42:46.604Z,47.77
2019-01-18T09:45:13.102Z,51.07
2019-01-18T09:47:39.193Z,47.37
2019-01-18T09:50:17.253Z,43.53
2019-01-18T09:52:43.552Z,47.00
2019-01-18T09:55:09.682Z,42.27
2019-01-18T09:57:35.770Z,54.90
2019-01-18T10:00:11.418Z,46.73
2019-01-18T10:02:37.518Z,48.33
2019-01-18T10:05:06.220Z,52.20
2019-01-18T10:07:32.332Z,48.07
2019-01-18T10:09:58.424Z,51.90
2019-01-18T10:12:24.523Z,49.73
2019-01-18T10:14:50.610Z,52.03
2019-01-18T10:17:18.798Z,46.67
2019-01-18T10:19:44.900Z,51.07
2019-01-18T10:22:11.010Z,45.70
2019-01-18T10:24:37.122Z,48.57
2019-01-18T10:27:03.217Z,50.13
2019-01-18T10:29:29.419Z,48.70
2019-01-18T10:31:56.173Z,46.37
2019-01-18T10:34:22.839Z,50.10
2019-01-18T10:36:48.952Z,46.33
2019-01-18T10:39:17.800Z,49.43
2019-01-18T10:41:44.034Z,48.17
2019-01-18T10:44:10.141Z,48.27
2019-01-18T10:46:36.232Z,46.27
2019-01-18T10:49:02.495Z,46.47
2019-01-18T10:51:28.578Z,48.47
2019-01-18T10:53:54.685Z,51.23
2019-01-18T10:56:20.803Z,63.90
2019-01-18T10:58:46.924Z,48.13
2019-01-18T11:01:13.007Z,45.70
2019-01-18T11:03:39.120Z,48.20
2019-01-18T11:06:05.236Z,47.23
2019-01-18T11:08:31.367Z,48.00
2019-01-18T11:10:57.474Z,43.10
2019-01-18T11:13:23.591Z,44.60
2019-01-18T11:15:49.691Z,48.27
2019-01-18T11:18:16.043Z,51.57
2019-01-18T11:20:51.034Z,47.90
2019-01-18T11:23:19.372Z,43.73
2019-01-18T11:25:45.493Z,46.23
2019-01-18T11:28:11.683Z,49.63
2019-01-18T11:30:37.810Z,46.27
2019-01-18T11:33:03.907Z,48.30
2019-01-18T11:35:30.004Z,43.37
2019-01-18T11:37:56.089Z,46.20
2019-01-18T11:40:22.698Z,43.90
2019-01-18T11:42:48.794Z,48.13
2019-01-18T11:45:14.995Z,48.53
2019-01-18T11:47:41.114Z,42.77
2019-01-18T11:50:16.279Z,40.30
2019-01-18T11:52:42.368Z,45.17
2019-01-18T11:55:08.514Z,44.63
2019-01-18T11:57:34.611Z,44.30
2019-01-18T12:00:00.724Z,46.17
2019-01-18T12:02:26.820Z,41.43
2019-01-18T12:04:52.925Z,42.73
2019-01-18T12:07:19.049Z,44.23
2019-01-18T12:09:45.163Z,50.73
2019-01-18T12:12:11.257Z,42.70
2019-01-18T12:14:37.379Z,47.80
2019-01-18T12:17:03.569Z,50.23
2019-01-18T12:19:29.681Z,47.50
2019-01-18T12:21:55.781Z,46.83
2019-01-18T12:24:21.891Z,50.43
2019-01-18T12:26:48.013Z,48.07
2019-01-18T12:29:14.098Z,46.97
2019-01-18T12:31:41.219Z,47.07
2019-01-18T12:34:07.316Z,46.73
2019-01-18T12:36:33.428Z,44.20
2019-01-18T12:38:59.531Z,48.40
2019-01-18T12:41:25.638Z,44.58
2019-01-18T12:43:51.735Z,41.15
2019-01-18T12:46:17.823Z,39.73
2019-01-18T12:48:43.964Z,38.20
2019-01-18T12:51:10.135Z,37.67
2019-01-18T12:53:36.248Z,33.75
2019-01-18T12:56:02.412Z,31.70
2019-01-18T12:58:28.526Z,26.75
2019-01-18T13:00:54.619Z,30.10
2019-01-18T13:03:20.737Z,30.15
2019-01-18T13:05:46.874Z,28.90
2019-01-18T13:08:13.006Z,27.37
2019-01-18T13:10:39.126Z,30.57
2019-01-18T13:13:05.244Z,28.95
2019-01-18T13:15:35.271Z,26.65
2019-01-18T13:18:01.370Z,24.90
2019-01-18T13:20:27.499Z,26.15
2019-01-18T13:22:53.628Z,27.32
2019-01-18T13:25:19.784Z,28.27
2019-01-18T13:27:45.892Z,26.17
2019-01-18T13:30:17.521Z,29.65
2019-01-18T13:32:43.712Z,28.12
2019-01-18T13:35:09.837Z,27.55
2019-01-18T13:37:35.981Z,29.00
2019-01-18T13:40:06.369Z,30.65
2019-01-18T13:42:32.716Z,27.98
2019-01-18T13:44:58.845Z,27.27
2019-01-18T13:47:24.943Z,27.22
2019-01-18T13:49:51.088Z,27.17
2019-01-18T13:52:17.286Z,30.40
2019-01-18T13:54:43.474Z,31.30
2019-01-18T13:57:12.291Z,29.10
2019-01-18T13:59:37.634Z,32.88
2019-01-18T14:02:03.744Z,31.45
2019-01-18T14:04:29.892Z,28.23
2019-01-18T14:06:55.998Z,28.07
2019-01-18T14:09:22.119Z,28.57
2019-01-18T14:11:48.218Z,26.73
2019-01-18T14:14:14.336Z,25.03
2019-01-18T14:16:40.462Z,26.70
2019-01-18T14:19:06.695Z,30.13
2019-01-18T14:21:32.813Z,25.70
2019-01-18T14:23:58.959Z,24.37
2019-01-18T14:26:25.064Z,24.43
2019-01-18T14:28:51.179Z,24.37
2019-01-18T14:31:17.305Z,28.70
2019-01-18T14:33:43.412Z,29.70
2019-01-18T14:36:09.529Z,25.53
2019-01-18T14:38:35.636Z,27.43
2019-01-18T14:41:01.766Z,27.10
2019-01-18T14:43:27.909Z,28.67
2019-01-18T14:45:54.037Z,25.13
2019-01-18T14:48:20.147Z,26.70
2019-01-18T14:50:46.259Z,24.20
2019-01-18T14:53:12.363Z,28.07
2019-01-18T14:55:38.508Z,26.67
2019-01-18T14:58:06.455Z,24.60
2019-01-18T15:00:34.463Z,28.70
2019-01-18T15:03:02.506Z,27.17
2019-01-18T15:05:29.045Z,30.87
2019-01-18T15:07:55.292Z,27.57
2019-01-18T15:10:23.236Z,33.27
2019-01-18T15:12:51.932Z,29.73
2019-01-18T15:15:18.046Z,30.77
2019-01-18T15:17:46.683Z,25.93
2019-01-18T15:20:21.885Z,28.80
2019-01-18T15:22:48.555Z,29.13
2019-01-18T15:25:14.966Z,32.60
2019-01-18T15:27:41.096Z,31.13
2019-01-18T15:30:11.036Z,30.90
2019-01-18T15:32:37.249Z,32.93
2019-01-18T15:35:07.080Z,30.77
2019-01-18T15:37:33.219Z,30.17
2019-01-18T15:40:00.670Z,35.43
2019-01-18T15:42:26.866Z,28.13
2019-01-18T15:44:53.113Z,26.10
2019-01-18T15:47:19.303Z,28.10
2019-01-18T15:49:45.481Z,30.63
2019-01-18T15:52:11.660Z,33.57
2019-01-18T15:54:37.838Z,35.70
2019-01-18T15:57:03.959Z,28.10
2019-01-18T15:59:30.098Z,29.73
2019-01-18T16:01:56.207Z,28.83
2019-01-18T16:04:22.310Z,31.17
2019-01-18T16:06:48.432Z,31.07
2019-01-18T16:09:14.538Z,28.40
2019-01-18T16:11:40.654Z,32.10
2019-01-18T16:14:06.792Z,30.13
2019-01-18T16:16:33.653Z,31.57
2019-01-18T16:19:00.134Z,29.80
2019-01-18T16:21:26.309Z,30.63
2019-01-18T16:23:52.460Z,28.10
2019-01-18T16:26:18.588Z,29.20
2019-01-18T16:28:46.667Z,30.07
2019-01-18T16:31:12.873Z,37.77
2019-01-18T16:33:38.975Z,31.67
2019-01-18T16:36:05.091Z,28.60
2019-01-18T16:38:31.245Z,28.53
2019-01-18T16:40:57.463Z,28.67
2019-01-18T16:43:29.205Z,35.40
2019-01-18T16:45:55.338Z,30.00
2019-01-18T16:48:21.442Z,27.40
2019-01-18T16:50:47.579Z,26.83
2019-01-18T16:53:13.715Z,26.60
2019-01-18T16:55:39.873Z,31.17
2019-01-18T16:58:05.966Z,26.37
2019-01-18T17:00:35.198Z,26.83
2019-01-18T17:03:01.321Z,31.77
2019-01-18T17:05:27.457Z,30.63
2019-01-18T17:07:53.574Z,30.13
2019-01-18T17:10:19.783Z,25.17
2019-01-18T17:12:45.990Z,28.93
2019-01-18T17:15:13.796Z,27.27
2019-01-18T17:17:39.944Z,27.17
2019-01-18T17:20:28.163Z,28.27
2019-01-18T17:22:54.277Z,26.63
2019-01-18T17:25:20.393Z,24.37
2019-01-18T17:27:46.544Z,33.17
2019-01-18T17:30:20.574Z,28.53
2019-01-18T17:32:47.111Z,32.60
2019-01-18T17:35:23.117Z,25.90
2019-01-18T17:37:53.071Z,24.93
2019-01-18T17:40:26.031Z,24.37
2019-01-18T17:43:12.666Z,25.63
2019-01-18T17:45:59.183Z,24.20
2019-01-18T17:48:32.189Z,23.37
2019-01-18T17:51:17.098Z,28.17
2019-01-18T17:54:05.329Z,27.70
2019-01-18T17:56:44.506Z,26.00
2019-01-18T17:59:20.344Z,28.17
2019-01-18T18:02:23.667Z,26.47
2019-01-18T18:05:05.564Z,22.30
2019-01-18T18:08:07.649Z,22.50
2019-01-18T18:10:52.675Z,23.47
2019-01-18T18:13:35.001Z,23.53
2019-01-18T18:16:07.965Z,20.83
2019-01-18T18:18:49.477Z,27.03
2019-01-18T18:21:25.411Z,20.20
2019-01-18T18:24:04.212Z,23.47
2019-01-18T18:26:46.404Z,26.20
2019-01-18T18:29:16.354Z,26.20
2019-01-18T18:32:18.146Z,20.63
2019-01-18T18:35:13.820Z,21.63
2019-01-18T18:37:52.804Z,19.00
2019-01-18T18:40:28.763Z,23.27
2019-01-18T18:43:04.954Z,22.97
2019-01-18T18:45:57.888Z,25.63
2019-01-18T18:48:30.863Z,25.30
2019-01-18T18:51:00.892Z,27.50
2019-01-18T18:53:48.998Z,27.00
2019-01-18T18:56:24.530Z,26.20
2019-01-18T18:59:12.287Z,22.97
2019-01-18T19:01:57.089Z,26.27
2019-01-18T19:04:27.011Z,22.17
2019-01-18T19:07:18.208Z,28.87
2019-01-18T19:10:11.212Z,26.50
2019-01-18T19:12:41.178Z,29.73
2019-01-18T19:15:22.502Z,28.17
2019-01-18T19:17:55.384Z,35.47
2019-01-18T19:20:39.589Z,28.63
2019-01-18T19:23:09.617Z,29.00
2019-01-18T19:25:45.279Z,29.77
2019-01-18T19:28:18.248Z,28.43
2019-01-18T19:30:57.284Z,27.07
2019-01-18T19:33:39.523Z,28.30
2019-01-18T19:36:21.200Z,27.37
2019-01-18T19:38:59.963Z,27.57
2019-01-18T19:41:50.954Z,28.93
2019-01-18T19:44:23.938Z,23.90
2019-01-18T19:46:59.631Z,22.80
2019-01-18T19:49:35.367Z,21.23
2019-01-18T19:52:11.408Z,22.63
2019-01-18T19:54:44.278Z,27.17
2019-01-18T19:57:35.116Z,26.17
2019-01-18T20:00:14.408Z,30.23
2019-01-18T20:02:56.373Z,25.60
2019-01-18T20:05:29.413Z,28.17
2019-01-18T20:08:20.561Z,29.17
2019-01-18T20:11:08.903Z,26.07
2019-01-18T20:13:55.475Z,28.40
2019-01-18T20:16:51.492Z,31.90
2019-01-18T20:19:45.855Z,34.17
2019-01-18T20:22:30.382Z,30.90
2019-01-18T20:25:18.962Z,33.93
2019-01-18T20:28:07.280Z,28.20
2019-01-18T20:30:52.371Z,26.87
2019-01-18T20:33:43.577Z,24.80
2019-01-18T20:36:31.384Z,23.53
2019-01-18T20:39:17.678Z,22.40
2019-01-18T20:42:13.604Z,24.80
2019-01-18T20:45:01.883Z,23.77
2019-01-18T20:48:05.238Z,22.87
2019-01-18T20:50:35.178Z,17.77
2019-01-18T20:53:05.159Z,23.63
2019-01-18T20:55:47.033Z,27.73
2019-01-18T20:58:35.095Z,27.60
2019-01-18T21:01:17.171Z,24.13
2019-01-18T21:04:25.350Z,23.67
2019-01-18T21:06:52.510Z,18.93
2019-01-18T21:09:54.637Z,24.33
2019-01-18T21:12:39.677Z,23.60
2019-01-18T21:15:12.634Z,23.63
2019-01-18T21:18:03.569Z,30.60
2019-01-18T21:20:42.879Z,23.73
2019-01-18T21:23:22.117Z,24.73
2019-01-18T21:25:55.173Z,20.40
2019-01-18T21:28:41.861Z,21.43
2019-01-18T21:31:41.562Z,21.23
2019-01-18T21:34:23.301Z,26.63
2019-01-18T21:37:20.129Z,23.00
2019-01-18T21:40:09.340Z,24.20
2019-01-18T21:42:56.991Z,22.47
2019-01-18T21:45:27.230Z,23.93
2019-01-18T21:48:05.657Z,23.50
2019-01-18T21:50:56.792Z,27.67
2019-01-18T21:53:29.551Z,22.53
2019-01-18T21:56:05.031Z,25.07
2019-01-18T21:58:37.936Z,26.27
2019-01-18T22:01:19.921Z,20.77
2019-01-18T22:03:49.922Z,24.87
2019-01-18T22:06:25.960Z,25.07
2019-01-18T22:08:58.694Z,22.03
2019-01-18T22:11:31.347Z,20.50
2019-01-18T22:14:07.208Z,24.20
2019-01-18T22:16:42.996Z,24.20
2019-01-18T22:19:46.907Z,22.43
2019-01-18T22:22:16.816Z,19.97
2019-01-18T22:25:06.543Z,25.63
2019-01-18T22:27:42.460Z,24.53
2019-01-18T22:30:46.085Z,23.33
2019-01-18T22:33:25.081Z,21.00
2019-01-18T22:36:31.636Z,25.70
2019-01-18T22:39:10.434Z,24.63
2019-01-18T22:41:55.461Z,29.00
2019-01-18T22:44:59.931Z,26.67
2019-01-18T22:47:55.650Z,30.07
2019-01-18T22:50:46.299Z,21.80
2019-01-18T22:53:22.244Z,24.80
2019-01-18T22:55:57.922Z,23.83
2019-01-18T22:58:52.083Z,24.20
2019-01-18T23:01:46.722Z,22.17
2019-01-18T23:04:19.484Z,18.77
2019-01-18T23:06:55.763Z,26.00
2019-01-18T23:09:48.520Z,21.03
2019-01-18T23:12:21.165Z,20.47
2019-01-18T23:15:02.975Z,22.77
2019-01-18T23:17:36.180Z,20.77
2019-01-18T23:20:18.029Z,21.47
2019-01-18T23:25:31.799Z,24.37
2019-01-18T23:28:10.526Z,19.97
2019-01-18T23:30:46.577Z,18.97
2019-01-18T23:33:34.771Z,26.20
2019-01-18T23:36:04.697Z,15.50
2019-01-18T23:38:49.771Z,22.30
2019-01-18T23:41:36.222Z,20.80
2019-01-18T23:44:19.022Z,23.80
2019-01-18T23:47:06.470Z,17.53
2019-01-18T23:49:42.204Z,22.50
2019-01-18T23:52:28.650Z,19.57
2019-01-18T23:55:01.226Z,18.00
2019-01-18T23:57:34.234Z,20.10
